• Join FlightAware (Why Join?)
  • Login
  • US Flag 
03:48AM EDT


 

Airport Tracker/Info


-or-


 

Live Flight TrackerFlight Track Log ✈ EJA101 ✈ 03-May-2013 ✈ KBDL - KAVP

Flight Track Log - Related Links

Times and Time Zones

All times are in EDT time to prevent confusion due to time zone crossing. See the EJA101 flight status page for this flight to view local times or setup timezone preferences in your user account.

Time Position Orientation Groundspeed Altitude Reporting Facility
EDT Latitude Longitude Course Direction KTS MPH feet Rate Location/Type
12:36PM 41.9436 -72.6800 44° Northeast 131 151 1,400  Level Boston Center
12:36PM 41.9583 -72.6606 44° Northeast 197 227 2,000 3,420 Climbing Boston Center
12:37PM 41.9875 -72.6019 56° Northeast 211 243 5,800 3,900 Climbing Boston Center
12:38PM 42.0586 -72.6133 353° North 208 239 9,900 2,940 Climbing Boston Center
12:39PM 42.0792 -72.7450 282° West 204 235 11,700 2,100 Climbing Boston Center
12:40PM 42.0911 -72.8767 277° West 306 352 14,100 1,140 Climbing Boston Center
12:41PM 42.1069 -73.0389 278° West 394 453 14,000 -60 Descending Boston Center
12:42PM 42.0853 -73.1731 258° West 410 472 14,000  Level Boston Center
12:43PM 42.0489 -73.3319 253° West 401 461 14,000  Level Boston Center
12:44PM 42.0103 -73.4711 250° West 401 461 14,000  Level Boston Center
12:45PM 41.9733 -73.6128 251° West 401 461 14,000  Level Boston Center
12:46PM 41.9383 -73.7547 252° West 406 467 14,000  Level Boston Center
12:47PM 41.9014 -73.8961 251° West 406 467 14,000  Level Boston Center
12:48PM 41.8639 -74.0375 250° West 400 460 14,000  Level Boston Center
12:49PM 41.8286 -74.1786 251° West 400 460 14,000  Level Boston Center
12:50PM 41.7931 -74.3058 249° West 405 466 14,000 -900 Level Boston Center
12:52PM 41.7253 -74.5647 251° West 387 445 11,500 -1,080 Descending New York Center
12:53PM 41.6900 -74.6933 250° West 374 430 11,000 -300 Descending New York Center
12:54PM 41.6564 -74.8217 251° West 374 430 11,000  Level New York Center
12:55PM 41.6228 -74.9528 251° West 380 437 11,000  Level New York Center
12:56PM 41.5914 -75.0700 250° West 377 434 11,000 -420 Level New York Center
12:57PM 41.5606 -75.1789 249° West 344 396 10,200 -1,620 Descending New York Center
12:58PM 41.4989 -75.2664 227° Southwest 299 344 7,900 -1,620 Descending New York Center
12:59PM 41.4381 -75.3342 220° Southwest 293 337 7,000 -840 Descending New York Center
01:00PM 41.3836 -75.3914 218° Southwest 274 315 6,300 -1,080 Descending New York Center
01:01PM 41.3378 -75.4436 221° Southwest 257 296 4,900 -1,200 Descending New York Center
01:02PM 41.3000 -75.5072 232° Southwest 235 270 4,000 -480 Descending New York Center
01:03PM 41.2736 -75.5936 248° West 228 262 4,000  Level New York Center
01:04PM 41.2542 -75.6583 248° West 219 252 4,000  Level New York Center
01:05PM 41.2350 -75.7233 249° West 203 234 4,000  Level New York Center
01:06PM 41.2242 -75.7803 256° West 191 220 4,000 -300 Level New York Center
01:07PM 41.2544 -75.8019 332° Northwest 107 123 3,400 -840 Descending New York Center
01:08PM 41.2806 -75.7736 39° Northeast 100 115 2,400 -1,020 Descending New York Center
01:10PM 41.3333 -75.7167 37° Northeast  Level FlightAware Approximate
01:17PM 41.3385 -75.7234 37° Northeast  Level Estimated